Terminal Aerodrome Forecast
Issued by NWS Twin Cities, MN

Home | Current Version | Previous Version | Text Only | Print | Product List | Glossary On
Versions: 1 2 3 4 5 6 7 8 9 10 11 12 13
519
FTUS43 KMPX 171122
TAFSTC
TAF
KSTC 171122Z 1712/1812 21007KT P6SM FEW120
     FM171600 22013G17KT P6SM SKC
     FM180000 25009KT P6SM SKC=

USA.gov is the U.S. government's official web portal to all federal, state and local government web resources and services.